^^
Grace C. Lehan Memorial Weather Station Historical Data
Daily Summary for May 7, 2021 Units:  Metric    English   Both
Daily Weekly Monthly Yearly
  High: Low: Average:
Temperature: 35.1 °C 21.1 °C 28.1 °C
Dew Point: 24.7 °C 17.7 °C 21.4 °C
Humidity: 84% 47.5% 68%
Wind Speed: 5.6km/h 0km/h 0.6km/h
Wind Gust: 20.9km/h - -
Wind- - SW
Pressure: 1017.5 hPa 1014.4 hPa -
Precipitation: 0 mm    
 
 
Tabular Data for May 7, 2021
Time Temperature Dew Point Pressure Wind Wind Speed Wind Gust Humidity Rainfall Rate (Hourly) solar
00:04 24.2 °C 18.6 °C 1016.1 hPa Calm     71% 0 mm 0 W/m2
00:09 24.2 °C 18.6 °C 1016.5 hPa Calm     71% 0 mm 0 W/m2
00:14 24.1 °C 18.5 °C 1016.5 hPa Calm     71% 0 mm 0 W/m2
00:19 24 °C 18.5 °C 1016.5 hPa Calm     71.4% 0 mm 0 W/m2
00:24 23.9 °C 18.6 °C 1016.5 hPa Calm     72% 0 mm 0 W/m2
00:29 23.9 °C 18.5 °C 1016.5 hPa Calm     72% 0 mm 0 W/m2
00:34 23.8 °C 18.4 °C 1016.5 hPa Calm     72% 0 mm 0 W/m2
00:39 23.7 °C 18.4 °C 1016.5 hPa Calm     72% 0 mm 0 W/m2
00:44 23.7 °C 18.3 °C 1016.1 hPa Calm     72% 0 mm 0 W/m2
00:49 23.6 °C 18.3 °C 1016.5 hPa Calm     72% 0 mm 0 W/m2
00:54 23.6 °C 18.2 °C 1016.5 hPa Calm     72% 0 mm 0 W/m2
00:59 23.5 °C 18.4 °C 1016.5 hPa Calm     73% 0 mm 0 W/m2
01:04 23.4 °C 18.3 °C 1016.5 hPa Calm     73% 0 mm 0 W/m2
01:09 23.3 °C 18.2 °C 1016.5 hPa Calm     73% 0 mm 0 W/m2
01:14 23.2 °C 18.2 °C 1016.5 hPa Calm     73.5% 0 mm 0 W/m2
01:19 23.1 °C 18.2 °C 1016.5 hPa Calm     74% 0 mm 0 W/m2
01:24 23.1 °C 18.2 °C 1016.5 hPa Calm     74% 0 mm 0 W/m2
01:29 23 °C 18.1 °C 1016.1 hPa Calm     74% 0 mm 0 W/m2
01:34 22.9 °C 18.1 °C 1016.5 hPa Calm     74% 0 mm 0 W/m2
01:39 22.8 °C 17.9 °C 1016.5 hPa Calm     74% 0 mm 0 W/m2
01:44 22.8 °C 17.9 °C 1016.5 hPa Calm     74% 0 mm 0 W/m2
01:49 22.7 °C 17.8 °C 1016.5 hPa Calm     74% 0 mm 0 W/m2
01:54 22.7 °C 17.8 °C 1016.1 hPa Calm     74.1% 0 mm 0 W/m2
01:59 22.6 °C 17.9 °C 1016.1 hPa Calm     75% 0 mm 0 W/m2
02:04 22.5 °C 17.9 °C 1016.1 hPa Calm     75% 0 mm 0 W/m2
02:09 22.4 °C 17.8 °C 1016.1 hPa Calm     75% 0 mm 0 W/m2
02:14 22.4 °C 17.8 °C 1016.1 hPa Calm     75% 0 mm 0 W/m2
02:19 22.4 °C 17.7 °C 1016.1 hPa Calm     75% 0 mm 0 W/m2
02:24 22.3 °C 17.7 °C 1016.1 hPa Calm     75.1% 0 mm 0 W/m2
02:29 22.3 °C 17.9 °C 1016.1 hPa Calm     76% 0 mm 0 W/m2
02:34 22.3 °C 17.8 °C 1016.1 hPa Calm     76% 0 mm 0 W/m2
02:39 22.2 °C 17.8 °C 1016.1 hPa Calm     76% 0 mm 0 W/m2
02:44 22.2 °C 17.9 °C 1016.1 hPa Calm     76.7% 0 mm 0 W/m2
02:49 22.1 °C 17.9 °C 1016.1 hPa Calm     77% 0 mm 0 W/m2
02:54 22.1 °C 17.8 °C 1016.1 hPa Calm     77% 0 mm 0 W/m2
02:59 22.1 °C 17.8 °C 1016.1 hPa Calm     77% 0 mm 0 W/m2
03:04 22.1 °C 17.8 °C 1016.1 hPa Calm     77% 0 mm 0 W/m2
03:09 22 °C 17.8 °C 1016.1 hPa Calm     77% 0 mm 0 W/m2
03:14 21.9 °C 17.8 °C 1016.1 hPa Calm     77% 0 mm 0 W/m2
03:19 21.9 °C 17.7 °C 1016.1 hPa Calm     77.2% 0 mm 0 W/m2
03:24 21.8 °C 17.8 °C 1016.1 hPa Calm     78% 0 mm 0 W/m2
03:29 21.8 °C 17.8 °C 1016.1 hPa Calm     78% 0 mm 0 W/m2
03:34 21.7 °C 17.9 °C 1016.1 hPa Calm     78.6% 0 mm 0 W/m2
03:39 21.7 °C 17.9 °C 1016.1 hPa Calm     79% 0 mm 0 W/m2
03:44 21.7 °C 17.9 °C 1016.1 hPa Calm     79% 0 mm 0 W/m2
03:49 21.7 °C 17.9 °C 1016.1 hPa Calm     79% 0 mm 0 W/m2
03:54 21.7 °C 17.9 °C 1016.1 hPa Calm     79% 0 mm 0 W/m2
03:59 21.6 °C 17.8 °C 1015.8 hPa Calm     79% 0 mm 0 W/m2
04:04 21.6 °C 17.8 °C 1015.8 hPa Calm     79% 0 mm 0 W/m2
04:09 21.6 °C 17.8 °C 1015.8 hPa Calm     79.4% 0 mm 0 W/m2
04:14 21.5 °C 17.9 °C 1015.8 hPa Calm     80% 0 mm 0 W/m2
04:19 21.4 °C 17.9 °C 1015.8 hPa Calm     80% 0 mm 0 W/m2
04:24 21.4 °C 17.9 °C 1015.8 hPa Calm     80.7% 0 mm 0 W/m2
04:29 21.3 °C 17.9 °C 1015.8 hPa Calm     81% 0 mm 0 W/m2
04:34 21.3 °C 17.9 °C 1015.8 hPa Calm     81% 0 mm 0 W/m2
04:39 21.3 °C 17.9 °C 1015.8 hPa Calm     81% 0 mm 0 W/m2
04:44 21.3 °C 17.9 °C 1015.8 hPa Calm     81.4% 0 mm 0 W/m2
04:49 21.2 °C 18 °C 1015.8 hPa Calm     82% 0 mm 0 W/m2
04:54 21.2 °C 18 °C 1016.1 hPa Calm     82% 0 mm 0 W/m2
04:59 21.2 °C 18 °C 1016.1 hPa Calm     82% 0 mm 0 W/m2
05:04 21.2 °C 18 °C 1016.1 hPa Calm     82% 0 mm 0 W/m2
05:09 21.2 °C 18 °C 1016.1 hPa Calm     82% 0 mm 0 W/m2
05:14 21.2 °C 18 °C 1016.1 hPa Calm     82% 0 mm 0 W/m2
05:19 21.2 °C 18 °C 1016.1 hPa Calm     82% 0 mm 0 W/m2
05:24 21.2 °C 18 °C 1016.1 hPa Calm     82% 0 mm 5 W/m2
05:29 21.2 °C 18.2 °C 1016.1 hPa Calm     82.9% 0 mm 9 W/m2
05:34 21.2 °C 18.2 °C 1016.1 hPa Calm     83% 0 mm 11 W/m2
05:39 21.2 °C 18.2 °C 1016.5 hPa Calm     83% 0 mm 14 W/m2
05:44 21.1 °C 18.1 °C 1016.5 hPa Calm     83% 0 mm 18 W/m2
05:49 21.1 °C 18.1 °C 1016.5 hPa Calm     83% 0 mm 21 W/m2
05:54 21.2 °C 18.3 °C 1016.5 hPa Calm     83.9% 0 mm 25 W/m2
05:59 21.2 °C 18.4 °C 1016.5 hPa Calm     84% 0 mm 28 W/m2
06:04 21.2 °C 18.4 °C 1016.8 hPa Calm     84% 0 mm 32 W/m2
06:09 21.2 °C 18.4 °C 1016.5 hPa Calm     84% 0 mm 33 W/m2
06:14 21.3 °C 18.5 °C 1016.8 hPa Calm     84% 0 mm 37 W/m2
06:19 21.4 °C 18.6 °C 1016.8 hPa Calm     84% 0 mm 39 W/m2
06:24 21.4 °C 18.7 °C 1016.8 hPa Calm     84% 0 mm 44 W/m2
06:29 21.6 °C 18.7 °C 1016.8 hPa Calm     84% 0 mm 51 W/m2
06:34 21.7 °C 18.8 °C 1016.8 hPa Calm     83.8% 0 mm 54 W/m2
06:39 21.8 °C 18.8 °C 1016.8 hPa Calm     83% 0 mm 60 W/m2
06:44 22 °C 19.1 °C 1016.8 hPa Calm     83.3% 0 mm 63 W/m2
06:49 22.3 °C 19.2 °C 1016.8 hPa Calm     83% 0 mm 69 W/m2
06:54 22.6 °C 19.4 °C 1016.8 hPa Calm     82% 0 mm 72 W/m2
06:59 22.9 °C 19.6 °C 1016.8 hPa Calm     81.4% 0 mm 76 W/m2
07:04 23.3 °C 19.7 °C 1016.8 hPa Calm     79.9% 0 mm 76 W/m2
07:09 23.7 °C 19.7 °C 1016.8 hPa Calm     78.5% 0 mm 79 W/m2
07:14 24.1 °C 19.9 °C 1016.8 hPa Calm     77.8% 0 mm 84 W/m2
07:19 24.4 °C 20.1 °C 1016.8 hPa Calm     76.8% 0 mm 102 W/m2
07:24 24.7 °C 20.2 °C 1016.8 hPa Calm     76% 0 mm 278 W/m2
07:29 25.1 °C 20.4 °C 1016.8 hPa Calm     75.2% 0 mm 294 W/m2
07:34 25.4 °C 20.4 °C 1016.8 hPa Calm     73.7% 0 mm 315 W/m2
07:39 25.8 °C 20.5 °C 1016.8 hPa Calm     72.6% 0 mm 327 W/m2
07:44 26.1 °C 20.6 °C 1016.8 hPa Calm     72% 0 mm 346 W/m2
07:49 26.3 °C 20.7 °C 1016.8 hPa Calm     71.5% 0 mm 362 W/m2
07:54 26.5 °C 20.9 °C 1017.2 hPa Calm     71.5% 0 mm 380 W/m2
07:59 26.8 °C 21.2 °C 1017.2 hPa Calm     71.5% 0 mm 403 W/m2
08:00 27 °C 21.3 °C 1017.2 hPa Calm     71% 0 mm 403 W/m2
08:09 27.7 °C 21.7 °C 1017.2 hPa Calm     69.8% 0 mm 441 W/m2
08:14 28.1 °C 21.6 °C 1017.2 hPa Calm     68.1% 0 mm 461 W/m2
08:19 28.3 °C 21.6 °C 1017.2 hPa Calm   1.6 km/h 67.1% 0 mm 475 W/m2
08:24 28.5 °C 21.7 °C 1017.2 hPa Calm   1.6 km/h 66.6% 0 mm 490 W/m2
08:29 28.8 °C 22.1 °C 1017.2 hPa Calm   1.6 km/h 67% 0 mm 508 W/m2
08:34 29.1 °C 22.2 °C 1017.2 hPa Calm   1.6 km/h 66.4% 0 mm 520 W/m2
08:39 29.4 °C 22.3 °C 1017.2 hPa Calm     65.5% 0 mm 536 W/m2
08:44 29.6 °C 22.1 °C 1017.2 hPa Calm   1.6 km/h 64.2% 0 mm 548 W/m2
08:49 29.6 °C 22.2 °C 1017.2 hPa Calm   1.6 km/h 64.2% 0 mm 564 W/m2
08:54 29.8 °C 22.1 °C 1017.2 hPa Calm   1.6 km/h 63.6% 0 mm 575 W/m2
08:59 29.9 °C 22.4 °C 1017.2 hPa Calm   3.2 km/h 63.9% 0 mm 589 W/m2
09:04 30.2 °C 22.6 °C 1017.2 hPa Calm   3.2 km/h 63.9% 0 mm 599 W/m2
09:09 30.5 °C 22.7 °C 1017.5 hPa Calm     63.2% 0 mm 612 W/m2
09:14 30.8 °C 22.7 °C 1017.2 hPa Calm     62.2% 0 mm 631 W/m2
09:19 31 °C 23 °C 1017.2 hPa Calm     62.6% 0 mm 643 W/m2
09:24 31.2 °C 23.3 °C 1017.2 hPa Calm   1.6 km/h 62.7% 0 mm 645 W/m2
09:29 31.5 °C 23.1 °C 1017.2 hPa Calm   1.6 km/h 61.2% 0 mm 671 W/m2
09:34 31.7 °C 22.8 °C 1017.2 hPa Calm   1.6 km/h 59.3% 0 mm 691 W/m2
09:39 31.8 °C 22.9 °C 1017.2 hPa Calm   1.6 km/h 59.4% 0 mm 717 W/m2
09:44 32.1 °C 23 °C 1017.2 hPa Calm   1.6 km/h 58.8% 0 mm 729 W/m2
09:49 32.3 °C 22.9 °C 1017.2 hPa SW 0.2 km/h 4.8 km/h 57.8% 0 mm 740 W/m2
09:54 32.5 °C 23.4 °C 1017.2 hPa SW 0.2 km/h 4.8 km/h 59.1% 0 mm 793 W/m2
09:59 32.7 °C 23.4 °C 1017.2 hPa SW 0.2 km/h 4.8 km/h 58% 0 mm 793 W/m2
10:04 32.9 °C 23.3 °C 1017.2 hPa Calm   4.8 km/h 57.1% 0 mm 761 W/m2
10:09 33 °C 23.2 °C 1017.2 hPa Calm   1.6 km/h 56.5% 0 mm 770 W/m2
10:14 33.1 °C 23.2 °C 1017.2 hPa SW 0.5 km/h 4.8 km/h 56.2% 0 mm 782 W/m2
10:19 33.2 °C 22.9 °C 1017.2 hPa Calm   4.8 km/h 55% 0 mm 789 W/m2
10:24 33.3 °C 23.1 °C 1017.2 hPa Calm   4.8 km/h 55.3% 0 mm 800 W/m2
10:29 33.4 °C 23 °C 1017.2 hPa Calm   4.8 km/h 54.6% 0 mm 810 W/m2
10:34 33.4 °C 23.1 °C 1017.2 hPa Calm   4.8 km/h 55% 0 mm 819 W/m2
10:39 33.3 °C 22.9 °C 1017.2 hPa Calm   1.6 km/h 54.3% 0 mm 823 W/m2
10:44 33.3 °C 23.1 °C 1017.2 hPa SW 0.3 km/h 3.2 km/h 54.9% 0 mm 833 W/m2
10:49 33.3 °C 23 °C 1017.2 hPa Calm   3.2 km/h 54.8% 0 mm 844 W/m2
10:54 33.6 °C 23.3 °C 1017.2 hPa SW 0.5 km/h 4.8 km/h 55.2% 0 mm 875 W/m2
10:59 33.7 °C 22.9 °C 1016.8 hPa SW 1.1 km/h 6.4 km/h 53.4% 0 mm 879 W/m2
11:04 33.7 °C 23.2 °C 1016.8 hPa SW 0.2 km/h 6.4 km/h 54.4% 0 mm 962 W/m2
11:09 33.8 °C 23.3 °C 1016.8 hPa Calm   3.2 km/h 54.3% 0 mm 984 W/m2
11:14 33.8 °C 23.5 °C 1016.8 hPa SW 1.1 km/h 4.8 km/h 55.1% 0 mm 1000 W/m2
11:19 33.9 °C 23.4 °C 1016.8 hPa WSW 1.8 km/h 8 km/h 54.4% 0 mm 1000 W/m2
11:24 34 °C 23.8 °C 1016.8 hPa Calm   8 km/h 55.5% 0 mm 1037 W/m2
11:29 34.2 °C 23.6 °C 1016.8 hPa WSW 0.2 km/h 8 km/h 54% 0 mm 1037 W/m2
11:34 34.4 °C 22.9 °C 1016.8 hPa WSW 1.9 km/h 11.3 km/h 51.3% 0 mm 1002 W/m2
11:39 34.6 °C 22.3 °C 1016.8 hPa WSW 0.3 km/h 11.3 km/h 49% 0 mm 983 W/m2
11:44 34.5 °C 22.3 °C 1016.8 hPa WSW 1.6 km/h 11.3 km/h 49.1% 0 mm 972 W/m2
11:49 34.5 °C 22.6 °C 1016.8 hPa WSW 0.5 km/h 11.3 km/h 50.1% 0 mm 984 W/m2
11:54 34.5 °C 22.1 °C 1016.5 hPa WSW 1.6 km/h 11.3 km/h 48.3% 0 mm 1039 W/m2
11:59 34.5 °C 22.3 °C 1016.5 hPa WSW 3.5 km/h 11.3 km/h 49.1% 0 mm 1039 W/m2
12:00 34.4 °C 22.5 °C 1016.5 hPa WSW 3.2 km/h 11.3 km/h 50% 0 mm 225 W/m2
12:09 34.1 °C 21.7 °C 1016.5 hPa WSW 0.8 km/h 6.4 km/h 48.5% 0 mm 1053 W/m2
12:14 33.9 °C 21.9 °C 1016.1 hPa WSW 2.9 km/h 8 km/h 49.8% 0 mm 1053 W/m2
12:19 33.9 °C 22.3 °C 1016.1 hPa WSW 1.1 km/h 9.7 km/h 50.7% 0 mm 1067 W/m2
12:24 34.1 °C 22.6 °C 1016.1 hPa WSW 3.1 km/h 9.7 km/h 51.1% 0 mm 1083 W/m2
12:29 34.1 °C 22.2 °C 1016.1 hPa WSW 2.1 km/h 9.7 km/h 50.2% 0 mm 220 W/m2
12:34 33.9 °C 22.5 °C 1016.1 hPa WSW 2.7 km/h 9.7 km/h 51.3% 0 mm 993 W/m2
12:39 33.9 °C 23 °C 1016.1 hPa WSW 1.9 km/h 8 km/h 53% 0 mm 1058 W/m2
12:44 34.2 °C 22.6 °C 1016.1 hPa WSW 3.9 km/h 9.7 km/h 50.9% 0 mm 1058 W/m2
12:49 34.3 °C 22.7 °C 1016.1 hPa WSW 2.6 km/h 9.7 km/h 50.7% 0 mm 1041 W/m2
12:54 34.4 °C 22.6 °C 1016.1 hPa WSW 2.9 km/h 11.3 km/h 50.4% 0 mm 1039 W/m2
12:59 34.4 °C 22.7 °C 1015.8 hPa West 3.2 km/h 20.9 km/h 50.6% 0 mm 1039 W/m2
13:04 34.4 °C 22.7 °C 1015.8 hPa West 3.1 km/h 20.9 km/h 50.8% 0 mm 1025 W/m2
13:09 34.4 °C 22.8 °C 1015.8 hPa WSW 3.5 km/h 19.3 km/h 51% 0 mm 1014 W/m2
13:14 34.5 °C 22.6 °C 1015.8 hPa WSW 2.3 km/h 19.3 km/h 49.9% 0 mm 1081 W/m2
13:19 34.4 °C 22.3 °C 1015.8 hPa WSW 5.6 km/h 19.3 km/h 49.4% 0 mm 1081 W/m2
13:24 34.5 °C 22.5 °C 1015.8 hPa WSW 4.3 km/h 19.3 km/h 49.8% 0 mm 1018 W/m2
13:29 34.6 °C 22.4 °C 1015.8 hPa SW 1.8 km/h 19.3 km/h 49.5% 0 mm 1078 W/m2
13:34 34.6 °C 23 °C 1015.8 hPa West 4.2 km/h 19.3 km/h 51.1% 0 mm 1035 W/m2
13:39 34.6 °C 22.4 °C 1015.8 hPa SW 4.2 km/h 16.1 km/h 49.3% 0 mm 1055 W/m2
13:44 34.7 °C 23 °C 1015.5 hPa WSW 2.6 km/h 16.1 km/h 50.8% 0 mm 1035 W/m2
13:49 34.9 °C 22.9 °C 1015.5 hPa SW 4.5 km/h 16.1 km/h 50% 0 mm 1069 W/m2
13:54 35.1 °C 22.5 °C 1015.5 hPa SW 4.7 km/h 19.3 km/h 48.1% 0 mm 1069 W/m2
13:59 35.1 °C 22.3 °C 1015.5 hPa SW 5.1 km/h 19.3 km/h 47.7% 0 mm 1034 W/m2
14:04 35.1 °C 22.4 °C 1015.5 hPa SW 4.2 km/h 19.3 km/h 48.1% 0 mm 977 W/m2
14:09 35.1 °C 22.4 °C 1015.5 hPa SW 4 km/h 14.5 km/h 47.9% 0 mm 1013 W/m2
14:14 35 °C 22.2 °C 1015.5 hPa WSW 1.4 km/h 14.5 km/h 47.5% 0 mm 229 W/m2
14:19 34.8 °C 22.4 °C 1015.5 hPa WSW 1.8 km/h 14.5 km/h 48.6% 0 mm 1053 W/m2
14:24 34.8 °C 22.9 °C 1015.5 hPa WSW 1.3 km/h 14.5 km/h 50.2% 0 mm 248 W/m2
14:29 34.6 °C 23.7 °C 1015.1 hPa SSW 1.4 km/h 14.5 km/h 53.3% 0 mm 981 W/m2
14:34 34.4 °C 24 °C 1015.1 hPa South 3.2 km/h 14.5 km/h 54.6% 0 mm 967 W/m2
14:39 34.4 °C 24.1 °C 1015.1 hPa WSW 1.9 km/h 9.7 km/h 55.1% 0 mm 956 W/m2
14:44 34.5 °C 24.4 °C 1015.1 hPa WSW 2.1 km/h 9.7 km/h 55.8% 0 mm 1023 W/m2
14:49 34.6 °C 24.4 °C 1015.1 hPa SW 1.4 km/h 12.9 km/h 55.6% 0 mm 1023 W/m2
14:54 34.6 °C 24.4 °C 1015.1 hPa SW 1 km/h 12.9 km/h 55.7% 0 mm 977 W/m2
14:59 34.6 °C 24.5 °C 1015.1 hPa WSW 3.9 km/h 12.9 km/h 55.9% 0 mm 967 W/m2
15:04 34.7 °C 24.5 °C 1015.1 hPa WSW 2.1 km/h 12.9 km/h 55.6% 0 mm 949 W/m2
15:09 34.7 °C 24.2 °C 1015.1 hPa SSW 3.1 km/h 8 km/h 54.8% 0 mm 949 W/m2
15:14 34.3 °C 23.9 °C 1015.1 hPa SSW 1.3 km/h 8 km/h 54.6% 0 mm 905 W/m2
15:19 34.1 °C 24.2 °C 1015.1 hPa WSW 0.8 km/h 8 km/h 56.5% 0 mm 882 W/m2
15:24 34.1 °C 24.4 °C 1014.8 hPa WSW 1.6 km/h 8 km/h 57.3% 0 mm 867 W/m2
15:29 34 °C 24.1 °C 1014.8 hPa SW 1.6 km/h 8 km/h 56.3% 0 mm 853 W/m2
15:34 33.8 °C 23.9 °C 1014.8 hPa SSW 1.8 km/h 8 km/h 56.2% 0 mm 160 W/m2
15:39 33.7 °C 24.1 °C 1014.8 hPa SW 0.3 km/h 6.4 km/h 57.3% 0 mm 817 W/m2
15:44 33.4 °C 24.1 °C 1014.8 hPa WSW 1.3 km/h 8 km/h 58.1% 0 mm 821 W/m2
15:49 33.3 °C 24.4 °C 1014.8 hPa WSW 0.2 km/h 8 km/h 59.5% 0 mm 830 W/m2
15:54 33.4 °C 24.7 °C 1014.8 hPa SW 1.3 km/h 8 km/h 60.4% 0 mm 773 W/m2
15:59 33.4 °C 24.4 °C 1014.8 hPa SW 1.6 km/h 8 km/h 59.6% 0 mm 744 W/m2
16:00 33.4 °C 24.6 °C 1014.8 hPa Calm   8 km/h 60% 0 mm 710 W/m2
16:09 33 °C 23.8 °C 1014.4 hPa South 0.5 km/h 6.4 km/h 58.7% 0 mm 482 W/m2
16:14 32.7 °C 23.9 °C 1014.4 hPa South 1.1 km/h 6.4 km/h 60.1% 0 mm 482 W/m2
16:19 32.6 °C 24.2 °C 1014.4 hPa SSW 1.9 km/h 6.4 km/h 61.5% 0 mm 162 W/m2
16:24 32.6 °C 24.2 °C 1014.4 hPa SW 1.4 km/h 6.4 km/h 61.5% 0 mm 127 W/m2
16:29 32.4 °C 23.8 °C 1014.4 hPa South 3.1 km/h 9.7 km/h 60.8% 0 mm 155 W/m2
16:34 32.3 °C 24.1 °C 1014.4 hPa SW 2.1 km/h 9.7 km/h 61.8% 0 mm 125 W/m2
16:39 32.2 °C 24.1 °C 1014.8 hPa SW 2.4 km/h 9.7 km/h 62% 0 mm 107 W/m2
16:44 32.1 °C 23.9 °C 1014.4 hPa SW 1.6 km/h 9.7 km/h 62.1% 0 mm 125 W/m2
16:49 32.1 °C 24.1 °C 1014.8 hPa SSW 2.6 km/h 16.1 km/h 62.9% 0 mm 97 W/m2
16:54 32.1 °C 23.9 °C 1014.8 hPa South 1.3 km/h 16.1 km/h 62.2% 0 mm 84 W/m2
16:59 32 °C 23.8 °C 1014.8 hPa South 2.3 km/h 16.1 km/h 62% 0 mm 79 W/m2
17:04 31.9 °C 23.9 °C 1014.8 hPa SW 1.6 km/h 16.1 km/h 62.6% 0 mm 76 W/m2
17:09 31.8 °C 23.9 °C 1014.8 hPa SW 2.6 km/h 17.7 km/h 63% 0 mm 77 W/m2
17:14 31.8 °C 23.9 °C 1014.8 hPa SSW 5.3 km/h 17.7 km/h 63% 0 mm 79 W/m2
17:19 31.7 °C 23.7 °C 1014.8 hPa SW 2.7 km/h 17.7 km/h 62.5% 0 mm 81 W/m2
17:24 31.6 °C 23.7 °C 1014.8 hPa SW 1.3 km/h 17.7 km/h 63% 0 mm 86 W/m2
17:29 31.5 °C 23.6 °C 1014.8 hPa SSW 2.6 km/h 17.7 km/h 62.8% 0 mm 86 W/m2
17:34 31.3 °C 23.4 °C 1014.8 hPa SW 3.5 km/h 17.7 km/h 63% 0 mm 104 W/m2
17:39 31.2 °C 23.7 °C 1014.8 hPa SW 0.8 km/h 14.5 km/h 64.3% 0 mm 137 W/m2
17:44 31.2 °C 23.8 °C 1014.4 hPa SW 2.1 km/h 14.5 km/h 64.9% 0 mm 130 W/m2
17:49 31.2 °C 23.7 °C 1014.8 hPa SW 1.1 km/h 14.5 km/h 64.5% 0 mm 123 W/m2
17:54 31.2 °C 23.7 °C 1014.8 hPa SW 2.3 km/h 14.5 km/h 64.4% 0 mm 121 W/m2
17:59 31.3 °C 23.7 °C 1014.8 hPa SW 0.2 km/h 14.5 km/h 64% 0 mm 105 W/m2
18:04 31.2 °C 23.6 °C 1014.8 hPa SW 0.8 km/h 14.5 km/h 63.8% 0 mm 91 W/m2
18:09 31.1 °C 23.3 °C 1015.1 hPa SW 0.5 km/h 9.7 km/h 63.3% 0 mm 86 W/m2
18:14 31.1 °C 23.5 °C 1015.1 hPa SW 0.5 km/h 9.7 km/h 64.3% 0 mm 84 W/m2
18:19 30.9 °C 23.6 °C 1015.1 hPa SW 1 km/h 9.7 km/h 65% 0 mm 86 W/m2
18:24 30.9 °C 23.5 °C 1015.1 hPa SW 1.6 km/h 16.1 km/h 64.8% 0 mm 79 W/m2
18:29 30.7 °C 23.6 °C 1015.1 hPa SW 0.5 km/h 16.1 km/h 65.7% 0 mm 81 W/m2
18:34 30.6 °C 23.6 °C 1015.1 hPa SW 1.3 km/h 16.1 km/h 66.2% 0 mm 74 W/m2
18:39 30.4 °C 23.3 °C 1015.1 hPa SSW 2.1 km/h 14.5 km/h 66% 0 mm 69 W/m2
18:44 30.2 °C 23.4 °C 1015.1 hPa SW 0.5 km/h 14.5 km/h 66.8% 0 mm 53 W/m2
18:49 30.1 °C 23.4 °C 1014.8 hPa SW 1.9 km/h 17.7 km/h 67.7% 0 mm 47 W/m2
18:54 29.8 °C 23.3 °C 1014.8 hPa SW 0.5 km/h 17.7 km/h 68% 0 mm 33 W/m2
18:59 29.7 °C 23.3 °C 1014.8 hPa WSW 0.6 km/h 17.7 km/h 68.8% 0 mm 32 W/m2
19:04 29.5 °C 23.3 °C 1014.8 hPa SW 0.3 km/h 17.7 km/h 69.5% 0 mm 42 W/m2
19:09 29.3 °C 23.4 °C 1014.8 hPa SW 0.2 km/h 3.2 km/h 70.4% 0 mm 47 W/m2
19:14 29.2 °C 23.3 °C 1014.8 hPa WSW 0.5 km/h 4.8 km/h 70.4% 0 mm 40 W/m2
19:19 29.1 °C 22.9 °C 1014.8 hPa WSW 0.2 km/h 4.8 km/h 69% 0 mm 35 W/m2
19:24 29.1 °C 22.8 °C 1015.1 hPa Calm   4.8 km/h 69.1% 0 mm 30 W/m2
19:29 29 °C 22.7 °C 1015.1 hPa Calm   4.8 km/h 68.9% 0 mm 23 W/m2
19:34 28.9 °C 22.4 °C 1015.1 hPa WSW 0.2 km/h 4.8 km/h 68% 0 mm 18 W/m2
19:39 28.9 °C 22.3 °C 1015.1 hPa Calm   3.2 km/h 67.8% 0 mm 14 W/m2
19:44 28.8 °C 22.2 °C 1015.1 hPa Calm   3.2 km/h 67.5% 0 mm 11 W/m2
19:49 28.7 °C 22.1 °C 1015.1 hPa Calm   3.2 km/h 67.5% 0 mm 9 W/m2
19:54 28.6 °C 22.2 °C 1015.1 hPa Calm   3.2 km/h 68.2% 0 mm 7 W/m2
19:59 28.5 °C 22.4 °C 1015.1 hPa Calm   3.2 km/h 69.7% 0 mm 5 W/m2
20:00 28.4 °C 22.4 °C 1015.1 hPa Calm   3.2 km/h 70% 0 mm 5 W/m2
20:09 28.3 °C 22.8 °C 1015.1 hPa Calm   1.6 km/h 72% 0 mm 0 W/m2
20:14 28.2 °C 22.7 °C 1015.1 hPa Calm   1.6 km/h 72.1% 0 mm 0 W/m2
20:19 28.1 °C 22.8 °C 1015.1 hPa Calm   1.6 km/h 73% 0 mm 0 W/m2
20:24 28.1 °C 22.7 °C 1015.1 hPa Calm   1.6 km/h 73% 0 mm 0 W/m2
20:29 27.9 °C 22.8 °C 1015.1 hPa Calm   1.6 km/h 73.8% 0 mm 0 W/m2
20:34 27.8 °C 22.8 °C 1015.1 hPa WSW 0.2 km/h 3.2 km/h 74% 0 mm 0 W/m2
20:39 27.7 °C 22.7 °C 1015.1 hPa WSW 0.2 km/h 3.2 km/h 74% 0 mm 0 W/m2
20:44 27.6 °C 22.6 °C 1015.1 hPa Calm   3.2 km/h 74% 0 mm 0 W/m2
20:49 27.6 °C 22.5 °C 1015.1 hPa Calm   3.2 km/h 74% 0 mm 0 W/m2
20:54 27.4 °C 22.6 °C 1015.1 hPa Calm   3.2 km/h 74.7% 0 mm 0 W/m2
20:59 27.3 °C 22.5 °C 1015.5 hPa Calm   3.2 km/h 75% 0 mm 0 W/m2
21:04 27.3 °C 22.4 °C 1015.5 hPa Calm   3.2 km/h 75% 0 mm 0 W/m2
21:09 27.2 °C 22.6 °C 1015.5 hPa Calm     75.8% 0 mm 0 W/m2
21:14 27.1 °C 22.5 °C 1015.5 hPa Calm     76% 0 mm 0 W/m2
21:19 27.1 °C 22.4 °C 1015.5 hPa Calm     76% 0 mm 0 W/m2
21:24 27 °C 22.4 °C 1015.5 hPa Calm     76.2% 0 mm 0 W/m2
21:29 26.9 °C 22.6 °C 1015.8 hPa Calm     77% 0 mm 0 W/m2
21:34 26.8 °C 22.4 °C 1015.8 hPa Calm     77% 0 mm 0 W/m2
21:39 26.7 °C 22.3 °C 1015.8 hPa Calm     77% 0 mm 0 W/m2
21:44 26.6 °C 22.2 °C 1015.8 hPa SW 0.3 km/h 4.8 km/h 77% 0 mm 0 W/m2
21:49 26.4 °C 22.1 °C 1015.8 hPa Calm   4.8 km/h 77% 0 mm 0 W/m2
21:54 26.3 °C 21.9 °C 1015.8 hPa Calm   4.8 km/h 77% 0 mm 0 W/m2
21:59 26.2 °C 21.8 °C 1015.8 hPa Calm   4.8 km/h 77% 0 mm 0 W/m2
22:04 26.1 °C 21.9 °C 1015.8 hPa Calm   4.8 km/h 78% 0 mm 0 W/m2
22:09 25.9 °C 21.8 °C 1015.8 hPa Calm     78% 0 mm 0 W/m2
22:14 25.8 °C 21.7 °C 1015.8 hPa Calm     78.1% 0 mm 0 W/m2
22:19 25.8 °C 21.8 °C 1015.5 hPa Calm     79% 0 mm 0 W/m2
22:24 25.7 °C 21.7 °C 1015.5 hPa Calm     79% 0 mm 0 W/m2
22:29 25.6 °C 21.7 °C 1015.5 hPa Calm     79% 0 mm 0 W/m2
22:34 25.4 °C 21.6 °C 1015.8 hPa Calm     79% 0 mm 0 W/m2
22:39 25.4 °C 21.4 °C 1015.8 hPa Calm     79% 0 mm 0 W/m2
22:44 25.3 °C 21.6 °C 1015.8 hPa Calm     80% 0 mm 0 W/m2
22:49 25.2 °C 21.5 °C 1015.8 hPa Calm     80% 0 mm 0 W/m2
22:54 25.1 °C 21.4 °C 1015.8 hPa Calm     80% 0 mm 0 W/m2
22:59 25.1 °C 21.5 °C 1015.8 hPa Calm     80.6% 0 mm 0 W/m2
23:04 24.9 °C 21.5 °C 1015.8 hPa Calm     81% 0 mm 0 W/m2
23:09 24.9 °C 21.4 °C 1015.8 hPa Calm     81% 0 mm 0 W/m2
23:14 24.8 °C 21.3 °C 1015.8 hPa Calm   1.6 km/h 81% 0 mm 0 W/m2
23:19 24.7 °C 21.3 °C 1015.8 hPa Calm   1.6 km/h 81.4% 0 mm 0 W/m2
23:24 24.7 °C 21.4 °C 1015.8 hPa Calm   1.6 km/h 82% 0 mm 0 W/m2
23:29 24.6 °C 21.3 °C 1015.8 hPa Calm   1.6 km/h 82% 0 mm 0 W/m2
23:34 24.6 °C 21.3 °C 1015.8 hPa Calm   1.6 km/h 82% 0 mm 0 W/m2
23:39 24.5 °C 21.2 °C 1015.8 hPa Calm     82% 0 mm 0 W/m2
23:44 24.4 °C 21.2 °C 1015.8 hPa Calm     82% 0 mm 0 W/m2
23:49 24.4 °C 21.2 °C 1015.8 hPa Calm   1.6 km/h 82% 0 mm 0 W/m2
23:54 24.4 °C 21.1 °C 1015.8 hPa Calm   1.6 km/h 82% 0 mm 0 W/m2
23:59 24.3 °C 21.2 °C 1015.8 hPa Calm   1.6 km/h 82.6% 0 mm 0 W/m2
Hartford County Weather
Compliments of Weather Underground - 2 mb